createdAt,value
2022-10-05T00:01:34.688Z,99125.16
2022-10-05T00:04:19.005Z,99118.13
2022-10-05T00:06:55.949Z,99111.22
2022-10-05T00:09:24.047Z,99117.22
2022-10-05T00:11:51.841Z,99109.66
2022-10-05T00:14:30.075Z,99104.41
2022-10-05T00:16:58.089Z,99107.69
2022-10-05T00:19:37.360Z,99112.28
2022-10-05T00:22:17.486Z,99108.66
2022-10-05T00:24:46.526Z,99096.44
2022-10-05T00:27:26.017Z,99097.38
2022-10-05T00:29:58.973Z,99099.38
2022-10-05T00:32:27.406Z,99111.31
2022-10-05T00:34:55.057Z,99104.59
2022-10-05T00:37:22.577Z,99104.59
2022-10-05T00:39:50.135Z,99113.31
2022-10-05T00:42:45.952Z,99104.53
2022-10-05T00:45:16.352Z,99114.97
2022-10-05T00:47:49.967Z,99115.00
2022-10-05T00:50:25.637Z,99103.66
2022-10-05T00:53:10.604Z,99099.56
2022-10-05T00:56:04.518Z,99105.47
2022-10-05T00:59:11.158Z,99109.81
2022-10-05T01:01:38.863Z,99109.31
2022-10-05T01:04:29.335Z,99113.09
2022-10-05T01:07:00.322Z,99112.84
2022-10-05T01:09:37.162Z,99113.75
2022-10-05T01:12:23.174Z,99119.03
2022-10-05T01:15:08.765Z,99113.59
2022-10-05T01:17:45.057Z,99121.84
2022-10-05T01:20:15.604Z,99121.59
2022-10-05T01:23:24.669Z,99122.56
2022-10-05T01:26:16.362Z,99128.38
2022-10-05T01:29:22.897Z,99131.69
2022-10-05T01:32:02.154Z,99123.84
2022-10-05T01:34:32.420Z,99130.72
2022-10-05T01:37:27.597Z,99111.91
2022-10-05T01:39:59.276Z,99126.47
2022-10-05T01:42:26.747Z,99125.53
2022-10-05T01:45:02.530Z,99121.34
2022-10-05T01:47:42.950Z,99120.38
2022-10-05T01:50:19.248Z,99124.00
2022-10-05T01:53:04.819Z,99117.97
2022-10-05T01:56:02.631Z,99120.78
2022-10-05T01:58:39.243Z,99108.28
2022-10-05T02:01:25.490Z,99126.56
2022-10-05T02:04:04.515Z,99123.84
2022-10-05T02:06:39.090Z,99114.44
2022-10-05T02:09:15.365Z,99126.47
2022-10-05T02:11:47.712Z,99125.78
2022-10-05T02:14:23.932Z,99127.44
2022-10-05T02:16:56.360Z,99121.47
2022-10-05T02:19:29.942Z,99123.09
2022-10-05T02:22:26.999Z,99138.97
2022-10-05T02:25:03.202Z,99119.69
2022-10-05T02:27:40.936Z,99129.81
2022-10-05T02:30:28.922Z,99125.34
2022-10-05T02:33:01.450Z,99132.00
2022-10-05T02:35:29.075Z,99131.25
2022-10-05T02:38:27.129Z,99136.59
2022-10-05T02:50:34.609Z,99125.16
2022-10-05T02:53:14.805Z,99138.03
2022-10-05T02:56:00.480Z,99135.69
2022-10-05T02:58:37.936Z,99129.38
2022-10-05T03:01:30.984Z,99137.00
2022-10-05T03:03:58.348Z,99140.72
2022-10-05T03:06:38.850Z,99138.91
2022-10-05T03:09:09.365Z,99147.34
2022-10-05T03:11:54.137Z,99146.53
2022-10-05T03:14:40.666Z,99146.69
2022-10-05T03:17:30.023Z,99137.00
2022-10-05T03:19:57.628Z,99144.53
2022-10-05T03:22:47.043Z,99149.53
2022-10-05T03:25:42.246Z,99147.97
2022-10-05T03:28:27.067Z,99151.31
2022-10-05T03:31:03.125Z,99159.66
2022-10-05T03:33:53.052Z,99160.69
2022-10-05T03:36:20.725Z,99158.75
2022-10-05T03:39:12.169Z,99148.25
2022-10-05T03:41:49.209Z,99153.47
2022-10-05T03:44:19.969Z,99159.97
2022-10-05T03:47:08.979Z,99156.91
2022-10-05T03:49:58.347Z,99161.75
2022-10-05T03:52:35.983Z,99152.25
2022-10-05T03:55:30.468Z,99160.41
2022-10-05T03:58:06.460Z,99153.22
2022-10-05T04:00:35.721Z,99155.13
2022-10-05T04:03:34.619Z,99162.53
2022-10-05T04:06:11.474Z,99163.47
2022-10-05T04:09:14.300Z,99161.31
2022-10-05T04:12:23.729Z,99169.22
2022-10-05T04:14:57.212Z,99166.13
2022-10-05T04:17:42.803Z,99157.53
2022-10-05T04:20:27.210Z,99157.53
2022-10-05T04:23:09.843Z,99160.81
2022-10-05T04:25:46.400Z,99166.84
2022-10-05T04:28:38.874Z,99167.78
2022-10-05T04:31:11.676Z,99171.25
2022-10-05T04:33:39.390Z,99168.50
2022-10-05T04:36:27.886Z,99167.09
2022-10-05T04:39:07.578Z,99174.03
2022-10-05T04:41:43.322Z,99173.22
2022-10-05T04:44:41.500Z,99178.38
2022-10-05T04:47:37.010Z,99182.31
2022-10-05T04:50:40.102Z,99176.41
2022-10-05T04:53:33.677Z,99184.06
2022-10-05T04:56:40.049Z,99184.91
2022-10-05T04:59:45.435Z,99185.16
2022-10-05T05:02:22.094Z,99188.41
2022-10-05T05:04:59.732Z,99182.41
2022-10-05T05:08:15.296Z,99185.56
2022-10-05T05:10:43.390Z,99187.06
2022-10-05T05:14:01.821Z,99188.13
2022-10-05T05:16:42.630Z,99188.13
2022-10-05T05:19:41.324Z,99180.72
2022-10-05T05:22:45.643Z,99188.47
2022-10-05T05:25:34.801Z,99188.63
2022-10-05T05:28:56.338Z,99192.91
2022-10-05T05:31:43.892Z,99188.41
2022-10-05T05:34:26.714Z,99187.56
2022-10-05T05:37:06.659Z,99187.28
2022-10-05T05:39:45.772Z,99183.75
2022-10-05T05:42:20.801Z,99181.28
2022-10-05T05:44:52.180Z,99179.47
2022-10-05T05:47:35.535Z,99197.69
2022-10-05T05:50:30.531Z,99197.84
2022-10-05T05:53:06.523Z,99198.84
2022-10-05T05:55:43.460Z,99198.25
2022-10-05T05:58:37.388Z,99199.97
2022-10-05T06:01:44.308Z,99194.50
2022-10-05T06:04:26.847Z,99206.34
2022-10-05T06:06:57.184Z,99200.88
2022-10-05T06:09:39.435Z,99196.00
2022-10-05T06:12:42.006Z,99201.09
2022-10-05T06:15:35.166Z,99210.75
2022-10-05T06:18:11.060Z,99202.78
2022-10-05T06:21:01.818Z,99203.44
2022-10-05T06:23:39.252Z,99216.34
2022-10-05T06:26:18.137Z,99219.94
2022-10-05T06:28:52.704Z,99210.56
2022-10-05T06:31:54.206Z,99227.25
2022-10-05T06:34:39.757Z,99230.13
2022-10-05T06:37:25.362Z,99221.94
2022-10-05T06:40:08.110Z,99241.38
2022-10-05T06:42:56.930Z,99235.72
2022-10-05T06:46:14.807Z,99242.91
2022-10-05T06:49:54.892Z,99242.78
2022-10-05T06:53:36.030Z,99242.44
2022-10-05T06:56:29.430Z,99242.59
2022-10-05T06:59:03.979Z,99234.78
2022-10-05T07:01:34.980Z,99255.41
2022-10-05T07:04:46.497Z,99257.44
2022-10-05T07:07:35.372Z,99259.75
2022-10-05T07:10:22.650Z,99258.97
2022-10-05T07:12:56.565Z,99258.81
2022-10-05T07:15:41.654Z,99262.22
2022-10-05T07:18:25.568Z,99265.00
2022-10-05T07:21:19.093Z,99250.09
2022-10-05T07:24:23.486Z,99269.41
2022-10-05T07:27:02.253Z,99261.50
2022-10-05T07:29:51.730Z,99271.00
2022-10-05T07:32:22.514Z,99273.38
2022-10-05T07:35:41.877Z,99261.75
2022-10-05T07:38:37.892Z,99274.47
2022-10-05T07:41:28.235Z,99277.81
2022-10-05T07:44:02.527Z,99289.28
2022-10-05T07:46:41.157Z,99283.16
2022-10-05T07:49:37.834Z,99290.97
2022-10-05T07:52:14.077Z,99291.38
2022-10-05T07:54:46.655Z,99299.91
2022-10-05T07:57:27.167Z,99304.19
2022-10-05T08:00:14.658Z,99303.53
2022-10-05T08:03:29.830Z,99303.00
2022-10-05T08:06:00.418Z,99310.19
2022-10-05T08:08:42.981Z,99314.25
2022-10-05T08:11:43.539Z,99313.84
2022-10-05T08:14:24.601Z,99317.91
2022-10-05T08:16:58.433Z,99327.97
2022-10-05T08:19:49.038Z,99327.53
2022-10-05T08:22:25.390Z,99321.53
2022-10-05T08:25:00.994Z,99318.50
2022-10-05T08:27:52.765Z,99320.63
2022-10-05T08:30:20.549Z,99327.19
2022-10-05T08:33:20.596Z,99322.38
2022-10-05T08:36:12.599Z,99334.31
2022-10-05T08:38:42.170Z,99325.34
2022-10-05T08:41:40.944Z,99322.00
2022-10-05T08:44:33.481Z,99336.53
2022-10-05T08:47:03.216Z,99337.16
2022-10-05T08:49:52.321Z,99344.88
2022-10-05T08:52:41.907Z,99339.06
2022-10-05T08:55:10.880Z,99352.44
2022-10-05T08:57:50.293Z,99343.03
2022-10-05T09:00:19.785Z,99340.22
2022-10-05T09:03:24.450Z,99352.34
2022-10-05T09:06:29.452Z,99349.50
2022-10-05T09:09:21.660Z,99362.81
2022-10-05T09:12:20.481Z,99352.44
2022-10-05T09:15:25.469Z,99356.44
2022-10-05T09:18:19.649Z,99352.38
2022-10-05T09:20:54.223Z,99364.41
2022-10-05T09:23:37.332Z,99369.97
2022-10-05T09:26:09.447Z,99373.13
2022-10-05T09:28:49.011Z,99361.78
2022-10-05T09:31:33.734Z,99371.19
2022-10-05T09:34:31.373Z,99372.72
2022-10-05T09:37:23.552Z,99363.63
2022-10-05T09:40:20.394Z,99368.28
2022-10-05T09:43:36.112Z,99377.44
2022-10-05T09:46:40.421Z,99359.47
2022-10-05T09:49:16.954Z,99378.81
2022-10-05T09:51:53.618Z,99371.75
2022-10-05T09:54:33.118Z,99369.22
2022-10-05T09:57:37.503Z,99374.44
2022-10-05T10:00:21.860Z,99377.59
2022-10-05T10:02:55.423Z,99387.59
2022-10-05T10:05:34.777Z,99387.44
2022-10-05T10:08:29.724Z,99398.44
2022-10-05T10:11:08.109Z,99386.34
2022-10-05T10:14:09.534Z,99402.59
2022-10-05T10:17:14.508Z,99399.72
2022-10-05T10:19:42.026Z,99403.44
2022-10-05T10:22:43.071Z,99403.22
2022-10-05T10:25:31.880Z,99413.97
2022-10-05T10:28:24.426Z,99411.75
2022-10-05T10:31:29.736Z,99412.72
2022-10-05T10:34:10.304Z,99399.56
2022-10-05T10:37:19.259Z,99403.94
2022-10-05T10:40:00.300Z,99405.66
2022-10-05T10:42:39.607Z,99394.53
2022-10-05T10:45:28.844Z,99394.91
2022-10-05T10:48:27.052Z,99401.59
2022-10-05T10:51:03.449Z,99393.41
2022-10-05T10:54:07.628Z,99405.16
2022-10-05T10:56:56.272Z,99408.13
2022-10-05T11:00:01.040Z,99414.97
2022-10-05T11:02:42.611Z,99420.47
2022-10-05T11:05:42.258Z,99421.59
2022-10-05T11:08:38.879Z,99426.00
2022-10-05T11:11:27.408Z,99431.69
2022-10-05T11:14:07.011Z,99427.03
2022-10-05T11:17:08.364Z,99439.19
2022-10-05T11:20:04.737Z,99439.66
2022-10-05T11:22:51.930Z,99432.28
2022-10-05T11:25:46.810Z,99448.66
2022-10-05T11:28:37.881Z,99447.88
2022-10-05T11:31:30.330Z,99453.91
2022-10-05T11:33:57.959Z,99448.88
2022-10-05T11:36:56.564Z,99452.91
2022-10-05T11:39:37.150Z,99450.81
2022-10-05T11:42:34.364Z,99468.38
2022-10-05T11:45:22.030Z,99467.13
2022-10-05T11:48:04.681Z,99470.47
2022-10-05T11:50:41.259Z,99480.47
2022-10-05T11:53:27.244Z,99471.63
2022-10-05T11:56:22.083Z,99470.41
2022-10-05T11:58:54.272Z,99469.53
2022-10-05T12:01:44.098Z,99463.84
2022-10-05T12:04:23.723Z,99498.44
2022-10-05T12:07:24.289Z,99499.94
2022-10-05T12:10:31.676Z,99504.88
2022-10-05T12:13:12.461Z,99501.06
2022-10-05T12:16:03.965Z,99512.91
2022-10-05T12:18:34.669Z,99503.91
2022-10-05T12:21:25.271Z,99497.56
2022-10-05T12:23:58.473Z,99505.25
2022-10-05T12:26:31.925Z,99506.75
2022-10-05T12:29:14.330Z,99512.44
2022-10-05T12:32:03.889Z,99526.50
2022-10-05T12:34:43.780Z,99532.91
2022-10-05T12:37:32.725Z,99534.09
2022-10-05T12:40:06.397Z,99534.75
2022-10-05T12:42:46.519Z,99537.22
2022-10-05T12:45:21.891Z,99539.31
2022-10-05T12:48:14.479Z,99533.31
2022-10-05T12:50:48.510Z,99543.78
2022-10-05T12:53:55.564Z,99546.44
2022-10-05T12:56:41.470Z,99536.69
2022-10-05T12:59:21.351Z,99545.13
2022-10-05T13:01:53.069Z,99539.00
2022-10-05T13:04:27.083Z,99540.38
2022-10-05T13:07:19.859Z,99536.94
2022-10-05T13:09:59.968Z,99534.78
2022-10-05T13:12:41.365Z,99538.47
2022-10-05T13:15:21.504Z,99538.72
2022-10-05T13:18:18.970Z,99539.31
2022-10-05T13:20:52.450Z,99537.56
2022-10-05T13:23:57.536Z,99539.13
2022-10-05T13:26:40.871Z,99548.03
2022-10-05T13:29:27.524Z,99545.06
2022-10-05T13:32:06.910Z,99542.72
2022-10-05T13:35:00.523Z,99548.69
2022-10-05T13:37:40.275Z,99553.47
2022-10-05T13:40:13.248Z,99561.19
2022-10-05T13:42:50.755Z,99564.88
2022-10-05T13:45:26.739Z,99556.03
2022-10-05T13:48:00.354Z,99549.47
2022-10-05T13:50:35.250Z,99557.63
2022-10-05T13:53:26.644Z,99565.31
2022-10-05T13:56:07.688Z,99564.81
2022-10-05T13:58:41.872Z,99570.53
2022-10-05T14:01:19.371Z,99574.75
2022-10-05T14:04:16.654Z,99574.78
2022-10-05T14:06:45.288Z,99576.13
2022-10-05T14:09:21.274Z,99571.81
2022-10-05T14:11:51.874Z,99570.22
2022-10-05T14:14:30.791Z,99576.31
2022-10-05T14:19:49.245Z,99579.34
2022-10-05T14:22:24.064Z,99601.19
2022-10-05T14:24:52.781Z,99588.63
2022-10-05T14:27:24.994Z,99586.59
2022-10-05T14:30:15.889Z,99599.16
2022-10-05T14:32:51.930Z,99588.72
2022-10-05T14:35:26.155Z,99599.81
2022-10-05T14:37:56.847Z,99605.03
2022-10-05T14:40:32.692Z,99604.16
2022-10-05T14:43:15.767Z,99603.25
2022-10-05T14:46:03.341Z,99603.47
2022-10-05T14:48:43.626Z,99608.56
2022-10-05T14:51:25.108Z,99610.84
2022-10-05T14:54:18.223Z,99612.47
2022-10-05T14:57:14.780Z,99616.00
2022-10-05T14:59:56.888Z,99618.03
2022-10-05T15:03:05.279Z,99623.13
2022-10-05T15:05:37.793Z,99621.00
2022-10-05T15:08:33.897Z,99626.16
2022-10-05T15:11:29.367Z,99617.56
2022-10-05T15:13:59.667Z,99631.13
2022-10-05T15:16:33.912Z,99635.47
2022-10-05T15:19:12.601Z,99641.63
2022-10-05T15:22:11.657Z,99635.53
2022-10-05T15:24:52.926Z,99638.75
2022-10-05T15:27:45.097Z,99657.13
2022-10-05T15:30:18.889Z,99655.22
2022-10-05T15:33:09.870Z,99660.50
2022-10-05T15:36:04.302Z,99666.31
2022-10-05T15:38:54.182Z,99662.88
2022-10-05T15:41:41.106Z,99676.53
2022-10-05T15:44:21.096Z,99668.81
2022-10-05T15:47:03.298Z,99677.09
2022-10-05T15:49:47.571Z,99680.59
2022-10-05T15:52:18.380Z,99676.06
2022-10-05T15:55:18.569Z,99680.59
2022-10-05T15:58:12.339Z,99682.22
2022-10-05T16:00:48.267Z,99682.81
2022-10-05T16:03:29.305Z,99681.81
2022-10-05T16:06:28.146Z,99686.19
2022-10-05T16:09:25.368Z,99697.38
2022-10-05T16:12:15.237Z,99690.44
2022-10-05T16:15:16.896Z,99694.81
2022-10-05T16:18:04.345Z,99700.69
2022-10-05T16:20:38.744Z,99693.00
2022-10-05T16:23:28.320Z,99693.22
2022-10-05T16:26:15.286Z,99692.09
2022-10-05T16:28:57.165Z,99686.09
2022-10-05T16:31:59.830Z,99694.94
2022-10-05T16:34:52.446Z,99694.94
2022-10-05T16:37:59.887Z,99695.88
2022-10-05T16:41:14.431Z,99694.91
2022-10-05T16:43:56.683Z,99697.94
2022-10-05T16:46:37.566Z,99693.22
2022-10-05T16:49:27.225Z,99703.38
2022-10-05T16:52:05.876Z,99700.34
2022-10-05T16:54:46.856Z,99704.25
2022-10-05T16:57:38.968Z,99719.56
2022-10-05T17:00:24.434Z,99712.59
2022-10-05T17:03:27.717Z,99713.38
2022-10-05T17:06:32.626Z,99721.09
2022-10-05T17:09:07.327Z,99718.38
2022-10-05T17:11:51.921Z,99721.59
2022-10-05T17:14:20.479Z,99719.75
2022-10-05T17:17:09.773Z,99728.63
2022-10-05T17:19:53.633Z,99738.22
2022-10-05T17:22:29.668Z,99734.78
2022-10-05T17:25:34.344Z,99731.00
2022-10-05T17:28:24.052Z,99729.16
2022-10-05T17:31:17.323Z,99734.59
2022-10-05T17:34:00.925Z,99741.50
2022-10-05T17:36:43.760Z,99737.16
2022-10-05T17:39:23.514Z,99738.94
2022-10-05T17:41:51.746Z,99730.06
2022-10-05T17:44:26.242Z,99738.75
2022-10-05T17:47:05.186Z,99736.38
2022-10-05T17:50:14.733Z,99724.34
2022-10-05T17:53:03.930Z,99738.13
2022-10-05T17:55:35.006Z,99746.69
2022-10-05T17:58:24.867Z,99737.38
2022-10-05T18:01:00.328Z,99748.25
2022-10-05T18:03:53.035Z,99748.13
2022-10-05T18:06:34.215Z,99742.25
2022-10-05T18:09:23.730Z,99752.22
2022-10-05T18:12:16.347Z,99747.44
2022-10-05T18:15:06.092Z,99748.81
2022-10-05T18:17:45.819Z,99753.59
2022-10-05T18:20:27.745Z,99749.22
2022-10-05T18:23:07.994Z,99757.31
2022-10-05T18:26:06.190Z,99759.94
2022-10-05T18:29:16.315Z,99764.00
2022-10-05T18:31:59.912Z,99752.94
2022-10-05T18:34:36.936Z,99764.75
2022-10-05T18:37:23.913Z,99768.13
2022-10-05T18:39:59.410Z,99767.59
2022-10-05T18:42:43.618Z,99775.44
2022-10-05T18:45:25.695Z,99770.81
2022-10-05T18:48:24.129Z,99774.97
2022-10-05T18:51:11.198Z,99770.13
2022-10-05T18:53:47.798Z,99769.31
2022-10-05T18:56:30.620Z,99766.53
2022-10-05T18:59:10.561Z,99765.25
2022-10-05T19:01:54.097Z,99782.63
2022-10-05T19:04:28.484Z,99779.84
2022-10-05T19:07:30.753Z,99778.22
2022-10-05T19:10:35.250Z,99768.44
2022-10-05T19:13:20.208Z,99773.38
2022-10-05T19:16:35.743Z,99776.94
2022-10-05T19:19:41.175Z,99777.34
2022-10-05T19:22:24.457Z,99770.78
2022-10-05T19:25:27.651Z,99782.53
2022-10-05T19:28:22.697Z,99775.59
2022-10-05T19:30:53.457Z,99780.31
2022-10-05T19:33:32.031Z,99786.47
2022-10-05T19:36:18.638Z,99779.22
2022-10-05T19:39:16.435Z,99787.69
2022-10-05T19:41:44.325Z,99786.09
2022-10-05T19:44:16.863Z,99781.16
2022-10-05T19:47:01.008Z,99766.59
2022-10-05T19:49:57.239Z,99782.25
2022-10-05T19:52:37.930Z,99790.06
2022-10-05T19:55:25.095Z,99778.94
2022-10-05T19:57:55.508Z,99791.09
2022-10-05T20:00:31.411Z,99786.09
2022-10-05T20:03:23.995Z,99798.50
2022-10-05T20:05:53.204Z,99788.00
2022-10-05T20:08:27.683Z,99788.09
2022-10-05T20:11:22.982Z,99795.53
2022-10-05T20:13:53.582Z,99792.03
2022-10-05T20:16:53.185Z,99788.84
2022-10-05T20:19:51.586Z,99787.97
2022-10-05T20:22:41.025Z,99795.97
2022-10-05T20:25:29.686Z,99790.84
2022-10-05T20:27:57.897Z,99782.94
2022-10-05T20:30:30.990Z,99780.28
2022-10-05T20:33:04.676Z,99790.66
2022-10-05T20:35:32.257Z,99777.47
2022-10-05T20:38:00.444Z,99784.41
2022-10-05T20:40:30.228Z,99797.16
2022-10-05T20:42:58.962Z,99785.16
2022-10-05T20:45:26.667Z,99800.78
2022-10-05T20:47:54.279Z,99803.31
2022-10-05T20:50:22.454Z,99782.59
2022-10-05T20:52:50.089Z,99787.72
2022-10-05T20:55:17.610Z,99794.44
2022-10-05T20:57:46.297Z,99790.06
2022-10-05T21:00:14.337Z,99787.22
2022-10-05T21:02:41.805Z,99802.94
2022-10-05T21:05:09.934Z,99801.19
2022-10-05T21:07:37.635Z,99793.50
2022-10-05T21:10:05.734Z,99787.16
2022-10-05T21:12:34.769Z,99800.25
2022-10-05T21:15:04.812Z,99797.69
2022-10-05T21:17:34.802Z,99797.81
2022-10-05T21:20:02.515Z,99800.44
2022-10-05T21:22:30.546Z,99801.25
2022-10-05T21:24:58.613Z,99792.84
2022-10-05T21:27:26.200Z,99805.06
2022-10-05T21:29:53.874Z,99810.28
2022-10-05T21:32:21.382Z,99795.84
2022-10-05T21:34:48.929Z,99796.72
2022-10-05T21:37:16.685Z,99787.91
2022-10-05T21:39:44.402Z,99794.16
2022-10-05T21:42:11.877Z,99805.50
2022-10-05T21:44:39.411Z,99796.72
2022-10-05T21:47:07.173Z,99807.25
2022-10-05T21:49:36.480Z,99807.25
2022-10-05T21:52:05.590Z,99821.06
2022-10-05T21:54:34.113Z,99820.94
2022-10-05T21:57:02.407Z,99823.63
2022-10-05T21:59:33.532Z,99822.63
2022-10-05T22:02:02.473Z,99833.94
2022-10-05T22:04:30.086Z,99840.03
2022-10-05T22:06:57.859Z,99828.03
2022-10-05T22:09:25.530Z,99844.28
2022-10-05T22:11:53.335Z,99841.72
2022-10-05T22:14:21.196Z,99831.25
2022-10-05T22:16:48.909Z,99840.84
2022-10-05T22:19:19.434Z,99843.41
2022-10-05T22:21:47.397Z,99837.41
2022-10-05T22:24:14.874Z,99842.66
2022-10-05T22:26:46.007Z,99844.38
2022-10-05T22:29:16.263Z,99852.06
2022-10-05T22:31:48.679Z,99844.28
2022-10-05T22:34:16.961Z,99851.41
2022-10-05T22:36:44.634Z,99852.28
2022-10-05T22:39:12.141Z,99836.75
2022-10-05T22:41:39.763Z,99835.06
2022-10-05T22:44:07.434Z,99840.41
2022-10-05T22:46:35.527Z,99843.78
2022-10-05T22:49:03.039Z,99829.06
2022-10-05T22:51:30.696Z,99841.22
2022-10-05T22:53:58.206Z,99839.38
2022-10-05T22:56:25.791Z,99833.53
2022-10-05T22:58:53.317Z,99834.47
2022-10-05T23:04:05.584Z,99839.81
2022-10-05T23:06:33.091Z,99839.03
2022-10-05T23:09:00.708Z,99832.91
2022-10-05T23:11:28.909Z,99836.38
2022-10-05T23:13:57.422Z,99840.69
2022-10-05T23:16:27.134Z,99844.94
2022-10-05T23:18:55.493Z,99844.16
2022-10-05T23:21:25.276Z,99834.59
2022-10-05T23:23:52.865Z,99829.56
2022-10-05T23:26:22.928Z,99840.03
2022-10-05T23:28:51.135Z,99848.69
2022-10-05T23:31:22.070Z,99845.25
2022-10-05T23:33:49.931Z,99841.66
2022-10-05T23:36:20.319Z,99853.94
2022-10-05T23:38:48.527Z,99848.88
2022-10-05T23:41:20.095Z,99838.50
2022-10-05T23:43:47.953Z,99839.31
2022-10-05T23:46:17.786Z,99852.41
2022-10-05T23:48:45.419Z,99849.94
2022-10-05T23:51:14.001Z,99841.13
2022-10-05T23:53:41.673Z,99849.88
2022-10-05T23:56:09.277Z,99846.34
2022-10-05T23:58:36.888Z,99852.41
